createdAt,value
2019-06-26T00:00:44.227Z,24.20
2019-06-26T00:01:46.283Z,24.20
2019-06-26T00:02:48.075Z,24.20
2019-06-26T00:03:49.778Z,24.20
2019-06-26T00:04:51.470Z,24.20
2019-06-26T00:05:53.195Z,24.20
2019-06-26T00:06:54.889Z,24.20
2019-06-26T00:07:56.587Z,24.10
2019-06-26T00:08:58.278Z,24.20
2019-06-26T00:09:59.849Z,24.20
2019-06-26T00:11:01.542Z,24.10
2019-06-26T00:12:03.157Z,24.10
2019-06-26T00:13:04.733Z,24.20
2019-06-26T00:14:06.416Z,24.10
2019-06-26T00:15:08.641Z,24.20
2019-06-26T00:16:10.326Z,24.10
2019-06-26T00:17:12.018Z,24.10
2019-06-26T00:18:13.610Z,24.10
2019-06-26T00:19:15.191Z,24.10
2019-06-26T00:20:17.568Z,24.10
2019-06-26T00:21:21.957Z,24.10
2019-06-26T00:22:22.830Z,24.00
2019-06-26T00:23:24.493Z,24.00
2019-06-26T00:24:26.074Z,24.00
2019-06-26T00:25:27.671Z,24.00
2019-06-26T00:26:29.355Z,24.00
2019-06-26T00:27:31.093Z,23.90
2019-06-26T00:28:32.797Z,23.90
2019-06-26T00:29:34.906Z,23.90
2019-06-26T00:30:36.593Z,23.90
2019-06-26T00:31:38.275Z,23.90
2019-06-26T00:32:40.307Z,23.90
2019-06-26T00:33:41.889Z,23.90
2019-06-26T00:34:43.585Z,23.90
2019-06-26T00:35:45.270Z,23.90
2019-06-26T00:36:46.877Z,23.90
2019-06-26T00:37:48.487Z,23.90
2019-06-26T00:38:50.330Z,23.90
2019-06-26T00:39:52.185Z,23.90
2019-06-26T00:40:53.864Z,23.80
2019-06-26T00:41:55.987Z,23.80
2019-06-26T00:42:57.590Z,23.80
2019-06-26T00:43:59.282Z,23.80
2019-06-26T00:45:00.865Z,23.80
2019-06-26T00:46:02.768Z,23.80
2019-06-26T00:47:04.461Z,23.70
2019-06-26T00:48:06.078Z,23.70
2019-06-26T00:49:07.649Z,23.70
2019-06-26T00:50:09.839Z,23.70
2019-06-26T00:51:11.528Z,23.70
2019-06-26T00:52:13.467Z,23.70
2019-06-26T00:53:15.099Z,23.70
2019-06-26T00:54:16.793Z,23.70
2019-06-26T00:55:18.479Z,23.70
2019-06-26T00:56:20.166Z,23.70
2019-06-26T00:57:21.857Z,23.70
2019-06-26T00:58:23.457Z,23.70
2019-06-26T00:59:25.136Z,23.70
2019-06-26T01:00:33.429Z,23.70
2019-06-26T01:01:35.348Z,23.70
2019-06-26T01:02:37.145Z,23.60
2019-06-26T01:03:38.728Z,23.70
2019-06-26T01:04:44.921Z,23.60
2019-06-26T01:05:46.604Z,23.60
2019-06-26T01:06:48.297Z,23.60
2019-06-26T01:07:49.886Z,23.60
2019-06-26T01:08:51.602Z,23.50
2019-06-26T01:09:54.532Z,23.50
2019-06-26T01:10:56.235Z,23.50
2019-06-26T01:11:57.924Z,23.50
2019-06-26T01:12:59.501Z,23.50
2019-06-26T01:14:01.196Z,23.50
2019-06-26T01:15:04.528Z,23.50
2019-06-26T01:16:06.224Z,23.50
2019-06-26T01:17:08.322Z,23.40
2019-06-26T01:18:10.081Z,23.40
2019-06-26T01:19:11.671Z,23.40
2019-06-26T01:20:13.478Z,23.40
2019-06-26T01:21:15.175Z,23.40
2019-06-26T01:22:16.848Z,23.40
2019-06-26T01:23:18.635Z,23.30
2019-06-26T01:24:20.340Z,23.40
2019-06-26T01:25:22.338Z,23.40
2019-06-26T01:26:23.930Z,23.30
2019-06-26T01:27:25.636Z,23.40
2019-06-26T01:28:27.221Z,23.30
2019-06-26T01:29:31.846Z,23.30
2019-06-26T01:30:32.481Z,23.30
2019-06-26T01:31:34.205Z,23.30
2019-06-26T01:32:36.283Z,23.20
2019-06-26T01:33:37.961Z,23.20
2019-06-26T01:34:39.657Z,23.20
2019-06-26T01:35:41.372Z,23.20
2019-06-26T01:36:43.360Z,23.20
2019-06-26T01:37:45.239Z,23.20
2019-06-26T01:38:46.946Z,23.20
2019-06-26T01:39:48.922Z,23.20
2019-06-26T01:40:50.561Z,23.20
2019-06-26T01:41:52.253Z,23.20
2019-06-26T01:42:53.943Z,23.20
2019-06-26T01:43:55.553Z,23.10
2019-06-26T01:44:57.138Z,23.10
2019-06-26T01:46:00.307Z,23.10
2019-06-26T01:47:02.299Z,23.10
2019-06-26T01:48:04.433Z,23.00
2019-06-26T01:49:06.049Z,23.00
2019-06-26T01:50:09.329Z,23.00
2019-06-26T01:51:11.533Z,23.00
2019-06-26T01:52:13.125Z,23.00
2019-06-26T01:53:14.815Z,23.00
2019-06-26T01:54:16.510Z,23.10
2019-06-26T01:55:18.718Z,23.00
2019-06-26T01:56:20.438Z,23.00
2019-06-26T01:57:22.121Z,23.00
2019-06-26T01:58:23.833Z,23.00
2019-06-26T01:59:25.500Z,23.00
2019-06-26T02:00:27.120Z,23.00
2019-06-26T02:01:28.865Z,23.00
2019-06-26T02:02:30.535Z,22.90
2019-06-26T02:03:32.238Z,22.90
2019-06-26T02:04:33.949Z,22.90
2019-06-26T02:05:35.659Z,22.90
2019-06-26T02:06:37.406Z,22.90
2019-06-26T02:07:39.095Z,22.90
2019-06-26T02:08:40.681Z,22.80
2019-06-26T02:09:42.275Z,22.80
2019-06-26T02:10:43.975Z,22.80
2019-06-26T02:11:46.179Z,22.80
2019-06-26T02:12:47.995Z,22.80
2019-06-26T02:13:49.686Z,22.80
2019-06-26T02:14:54.385Z,22.80
2019-06-26T02:15:56.079Z,22.80
2019-06-26T02:16:57.797Z,22.80
2019-06-26T02:17:59.380Z,22.80
2019-06-26T02:19:02.879Z,22.80
2019-06-26T02:20:07.891Z,22.80
2019-06-26T02:21:09.473Z,22.80
2019-06-26T02:22:11.253Z,22.80
2019-06-26T02:23:12.783Z,22.80
2019-06-26T02:24:14.529Z,22.70
2019-06-26T02:25:16.290Z,22.80
2019-06-26T02:26:17.831Z,22.70
2019-06-26T02:27:19.767Z,22.70
2019-06-26T02:28:21.362Z,22.70
2019-06-26T02:29:22.957Z,22.70
2019-06-26T02:30:24.650Z,22.70
2019-06-26T02:31:26.368Z,22.60
2019-06-26T02:32:28.007Z,22.60
2019-06-26T02:33:29.706Z,22.60
2019-06-26T02:34:31.382Z,22.60
2019-06-26T02:35:32.969Z,22.60
2019-06-26T02:36:34.579Z,22.60
2019-06-26T02:37:36.289Z,22.60
2019-06-26T02:38:37.965Z,22.60
2019-06-26T02:39:39.664Z,22.60
2019-06-26T02:40:41.483Z,22.60
2019-06-26T02:41:43.073Z,22.60
2019-06-26T02:42:44.676Z,22.60
2019-06-26T02:43:46.364Z,22.50
2019-06-26T02:44:53.634Z,22.60
2019-06-26T02:45:51.433Z,22.50
2019-06-26T02:46:53.226Z,22.50
2019-06-26T02:47:54.954Z,22.50
2019-06-26T02:48:58.168Z,22.50
2019-06-26T02:49:59.838Z,22.50
2019-06-26T02:51:01.812Z,22.50
2019-06-26T02:52:03.398Z,22.50
2019-06-26T02:53:05.114Z,22.40
2019-06-26T02:54:06.694Z,22.40
2019-06-26T02:55:08.679Z,22.40
2019-06-26T02:56:10.564Z,22.40
2019-06-26T02:57:12.247Z,22.40
2019-06-26T02:58:15.770Z,22.40
2019-06-26T02:59:17.449Z,22.40
2019-06-26T03:00:19.145Z,22.40
2019-06-26T03:01:20.826Z,22.50
2019-06-26T03:02:22.524Z,22.40
2019-06-26T03:03:27.186Z,22.40
2019-06-26T03:04:28.890Z,22.40
2019-06-26T03:05:30.490Z,22.40
2019-06-26T03:06:32.090Z,22.40
2019-06-26T03:07:33.769Z,22.40
2019-06-26T03:08:35.546Z,22.40
2019-06-26T03:09:37.250Z,22.40
2019-06-26T03:10:38.944Z,22.40
2019-06-26T03:11:44.419Z,22.50
2019-06-26T03:12:49.788Z,22.50
2019-06-26T03:13:51.578Z,22.50
2019-06-26T03:15:07.681Z,22.50
2019-06-26T03:15:56.729Z,22.50
2019-06-26T03:17:07.719Z,22.60
2019-06-26T03:18:09.431Z,22.60
2019-06-26T03:19:11.167Z,22.60
2019-06-26T03:20:13.282Z,22.60
2019-06-26T03:21:14.976Z,22.60
2019-06-26T03:22:16.675Z,22.60
2019-06-26T03:23:18.394Z,22.60
2019-06-26T03:24:20.099Z,22.70
2019-06-26T03:25:22.097Z,22.70
2019-06-26T03:26:23.785Z,22.70
2019-06-26T03:27:25.876Z,22.70
2019-06-26T03:28:27.465Z,22.70
2019-06-26T03:29:29.209Z,22.70
2019-06-26T03:30:33.815Z,22.70
2019-06-26T03:31:35.543Z,22.80
2019-06-26T03:32:37.223Z,22.70
2019-06-26T03:33:38.918Z,22.70
2019-06-26T03:34:40.533Z,22.80
2019-06-26T03:35:42.132Z,22.80
2019-06-26T03:36:43.817Z,22.80
2019-06-26T03:37:45.803Z,22.80
2019-06-26T03:38:47.493Z,22.90
2019-06-26T03:39:49.300Z,22.90
2019-06-26T03:40:51.052Z,22.90
2019-06-26T03:41:53.154Z,22.90
2019-06-26T03:42:54.872Z,23.00
2019-06-26T03:43:56.883Z,23.00
2019-06-26T03:44:58.492Z,23.00
2019-06-26T03:46:00.208Z,23.00
2019-06-26T03:47:01.784Z,23.00
2019-06-26T03:48:03.595Z,23.10
2019-06-26T03:49:05.288Z,23.10
2019-06-26T03:50:07.867Z,23.10
2019-06-26T03:51:09.473Z,23.10
2019-06-26T03:52:11.162Z,23.10
2019-06-26T03:53:12.741Z,23.00
2019-06-26T03:54:14.429Z,23.00
2019-06-26T03:55:16.457Z,23.00
2019-06-26T03:56:18.045Z,23.00
2019-06-26T03:57:19.736Z,23.10
2019-06-26T03:58:21.523Z,23.00
2019-06-26T03:59:23.229Z,23.00
2019-06-26T04:00:34.660Z,23.00
2019-06-26T04:01:36.351Z,23.00
2019-06-26T04:02:37.995Z,23.00
2019-06-26T04:03:39.581Z,23.00
2019-06-26T04:04:41.185Z,23.00
2019-06-26T04:05:42.797Z,23.00
2019-06-26T04:06:44.515Z,23.10
2019-06-26T04:07:46.191Z,23.10
2019-06-26T04:08:47.776Z,23.10
2019-06-26T04:09:49.476Z,23.20
2019-06-26T04:10:51.121Z,23.20
2019-06-26T04:11:52.809Z,23.30
2019-06-26T04:12:54.616Z,23.20
2019-06-26T04:13:56.142Z,23.30
2019-06-26T04:14:57.872Z,23.40
2019-06-26T04:15:59.558Z,23.40
2019-06-26T04:17:01.255Z,23.50
2019-06-26T04:18:02.949Z,23.50
2019-06-26T04:19:04.739Z,23.50
2019-06-26T04:20:06.731Z,23.60
2019-06-26T04:21:08.456Z,23.60
2019-06-26T04:22:10.231Z,23.60
2019-06-26T04:23:11.839Z,23.60
2019-06-26T04:24:13.428Z,23.60
2019-06-26T04:25:15.118Z,23.70
2019-06-26T04:26:16.838Z,23.70
2019-06-26T04:27:18.547Z,23.70
2019-06-26T04:28:20.326Z,23.80
2019-06-26T04:29:21.930Z,23.80
2019-06-26T04:30:23.699Z,23.80
2019-06-26T04:31:25.437Z,23.80
2019-06-26T04:32:27.021Z,23.80
2019-06-26T04:33:29.066Z,23.80
2019-06-26T04:34:30.649Z,23.80
2019-06-26T04:35:32.359Z,23.80
2019-06-26T04:36:34.102Z,23.90
2019-06-26T04:37:37.142Z,23.90
2019-06-26T04:38:58.490Z,23.90
2019-06-26T04:40:00.431Z,23.90
2019-06-26T04:41:02.022Z,24.00
2019-06-26T04:42:03.745Z,24.00
2019-06-26T04:43:05.323Z,24.00
2019-06-26T04:44:06.954Z,24.00
2019-06-26T04:45:10.780Z,24.00
2019-06-26T04:46:12.459Z,24.00
2019-06-26T04:47:14.179Z,24.00
2019-06-26T04:48:15.854Z,24.10
2019-06-26T04:49:17.572Z,24.10
2019-06-26T04:50:20.772Z,24.20
2019-06-26T04:51:22.473Z,24.20
2019-06-26T04:52:24.073Z,24.20
2019-06-26T04:53:25.786Z,24.30
2019-06-26T04:54:27.433Z,24.30
2019-06-26T04:55:29.026Z,24.40
2019-06-26T04:56:30.727Z,24.40
2019-06-26T04:57:32.318Z,24.50
2019-06-26T04:58:33.894Z,24.50
2019-06-26T04:59:36.219Z,24.60
2019-06-26T05:00:37.820Z,24.60
2019-06-26T05:01:39.615Z,24.60
2019-06-26T05:02:41.294Z,24.70
2019-06-26T05:03:42.991Z,24.70
2019-06-26T05:04:44.750Z,24.70
2019-06-26T05:05:46.437Z,24.70
2019-06-26T05:06:48.048Z,24.80
2019-06-26T05:07:49.644Z,24.80
2019-06-26T05:08:51.304Z,24.80
2019-06-26T05:09:53.373Z,24.80
2019-06-26T05:10:55.101Z,24.80
2019-06-26T05:11:56.651Z,24.80
2019-06-26T05:12:58.368Z,24.90
2019-06-26T05:14:00.042Z,24.90
2019-06-26T05:15:05.486Z,25.00
2019-06-26T05:16:14.867Z,25.00
2019-06-26T05:17:10.712Z,25.00
2019-06-26T05:18:12.396Z,25.00
2019-06-26T05:19:14.103Z,25.10
2019-06-26T05:20:15.827Z,25.10
2019-06-26T05:21:17.506Z,25.10
2019-06-26T05:22:19.670Z,25.20
2019-06-26T05:23:21.376Z,25.20
2019-06-26T05:24:22.953Z,25.20
2019-06-26T05:25:26.143Z,25.20
2019-06-26T05:26:27.850Z,25.30
2019-06-26T05:27:29.854Z,25.30
2019-06-26T05:28:31.446Z,25.30
2019-06-26T05:29:33.137Z,25.30
2019-06-26T05:30:35.192Z,25.40
2019-06-26T05:31:36.924Z,25.40
2019-06-26T05:32:38.506Z,25.50
2019-06-26T05:33:40.101Z,25.50
2019-06-26T05:34:42.091Z,25.50
2019-06-26T05:35:43.733Z,25.50
2019-06-26T05:36:45.297Z,25.60
2019-06-26T05:37:46.901Z,25.60
2019-06-26T05:38:48.620Z,25.70
2019-06-26T05:39:50.434Z,25.70
2019-06-26T05:40:53.565Z,25.70
2019-06-26T05:41:55.140Z,25.80
2019-06-26T05:42:56.837Z,25.80
2019-06-26T05:43:58.536Z,25.90
2019-06-26T05:45:00.148Z,25.90
2019-06-26T05:46:02.083Z,26.00
2019-06-26T05:47:06.989Z,26.00
2019-06-26T05:48:07.290Z,26.00
2019-06-26T05:49:08.893Z,26.00
2019-06-26T05:50:11.588Z,26.10
2019-06-26T05:51:13.202Z,26.10
2019-06-26T05:52:16.732Z,26.20
2019-06-26T05:53:18.266Z,26.20
2019-06-26T05:54:19.954Z,26.30
2019-06-26T05:55:21.537Z,26.40
2019-06-26T05:56:23.309Z,26.40
2019-06-26T05:57:24.897Z,26.40
2019-06-26T05:58:26.572Z,26.40
2019-06-26T05:59:28.139Z,26.50
2019-06-26T06:00:29.759Z,26.50
2019-06-26T06:01:31.475Z,26.50
2019-06-26T06:02:33.166Z,26.50
2019-06-26T06:03:34.866Z,26.50
2019-06-26T06:04:36.666Z,26.50
2019-06-26T06:05:38.328Z,26.50
2019-06-26T06:06:41.934Z,26.50
2019-06-26T06:07:43.365Z,26.50
2019-06-26T06:08:44.937Z,26.60
2019-06-26T06:09:46.537Z,26.60
2019-06-26T06:10:48.154Z,26.70
2019-06-26T06:11:49.838Z,26.70
2019-06-26T06:12:51.562Z,26.70
2019-06-26T06:13:53.621Z,26.80
2019-06-26T06:14:55.321Z,26.80
2019-06-26T06:15:57.018Z,26.80
2019-06-26T06:16:58.748Z,26.90
2019-06-26T06:18:00.383Z,26.90
2019-06-26T06:19:02.593Z,26.90
2019-06-26T06:20:05.622Z,26.90
2019-06-26T06:21:07.653Z,26.90
2019-06-26T06:22:09.333Z,26.90
2019-06-26T06:23:11.300Z,27.00
2019-06-26T06:24:12.917Z,26.90
2019-06-26T06:25:14.595Z,27.00
2019-06-26T06:26:16.278Z,27.00
2019-06-26T06:27:18.029Z,27.10
2019-06-26T06:28:19.817Z,27.10
2019-06-26T06:29:21.543Z,27.20
2019-06-26T06:30:24.046Z,27.20
2019-06-26T06:31:25.837Z,27.30
2019-06-26T06:32:27.436Z,27.30
2019-06-26T06:33:29.161Z,27.40
2019-06-26T06:34:30.962Z,27.50
2019-06-26T06:35:32.491Z,27.60
2019-06-26T06:36:34.074Z,27.60
2019-06-26T06:37:35.806Z,27.70
2019-06-26T06:38:37.525Z,27.70
2019-06-26T06:39:42.641Z,27.80
2019-06-26T06:40:44.328Z,27.80
2019-06-26T06:41:46.029Z,27.90
2019-06-26T06:42:47.718Z,27.90
2019-06-26T06:43:56.118Z,28.00
2019-06-26T06:45:05.257Z,28.00
2019-06-26T06:46:09.345Z,28.00
2019-06-26T06:47:14.075Z,28.10
2019-06-26T06:48:16.359Z,28.10
2019-06-26T06:49:18.273Z,28.10
2019-06-26T06:50:20.251Z,28.10
2019-06-26T06:51:22.283Z,28.10
2019-06-26T06:52:26.869Z,28.10
2019-06-26T06:53:28.760Z,28.10
2019-06-26T06:54:30.326Z,28.20
2019-06-26T06:55:31.962Z,28.20
2019-06-26T06:56:33.645Z,28.20
2019-06-26T06:57:35.353Z,28.30
2019-06-26T06:58:37.041Z,28.30
2019-06-26T06:59:38.742Z,28.30
2019-06-26T07:00:40.481Z,28.40
2019-06-26T07:01:42.524Z,28.50
2019-06-26T07:02:44.204Z,28.50
2019-06-26T07:03:45.887Z,28.50
2019-06-26T07:04:47.577Z,28.50
2019-06-26T07:05:49.256Z,28.60
2019-06-26T07:06:50.958Z,28.60
2019-06-26T07:07:52.537Z,28.60
2019-06-26T07:08:54.148Z,28.70
2019-06-26T07:09:55.839Z,28.70
2019-06-26T07:10:57.578Z,28.70
2019-06-26T07:11:59.289Z,28.80
2019-06-26T07:13:00.885Z,28.70
2019-06-26T07:14:03.165Z,28.70
2019-06-26T07:15:07.671Z,28.80
2019-06-26T07:16:09.401Z,28.80
2019-06-26T07:17:20.669Z,28.80
2019-06-26T07:18:15.005Z,28.80
2019-06-26T07:19:22.586Z,28.80
2019-06-26T07:20:24.649Z,28.90
2019-06-26T07:21:26.357Z,28.90
2019-06-26T07:22:27.946Z,28.90
2019-06-26T07:23:29.650Z,28.90
2019-06-26T07:24:31.358Z,28.90
2019-06-26T07:25:33.038Z,28.90
2019-06-26T07:26:34.759Z,28.90
2019-06-26T07:27:36.739Z,28.90
2019-06-26T07:28:38.417Z,28.90
2019-06-26T07:29:40.226Z,28.90
2019-06-26T07:30:41.925Z,28.90
2019-06-26T07:31:43.618Z,28.90
2019-06-26T07:32:45.367Z,29.00
2019-06-26T07:33:46.951Z,29.00
2019-06-26T07:34:48.657Z,29.10
2019-06-26T07:35:50.366Z,29.00
2019-06-26T07:36:52.105Z,29.10
2019-06-26T07:37:53.801Z,29.10
2019-06-26T07:38:55.429Z,29.10
2019-06-26T07:40:01.461Z,29.20
2019-06-26T07:41:00.573Z,29.20
2019-06-26T07:42:02.312Z,29.20
2019-06-26T07:43:03.889Z,29.30
2019-06-26T07:44:05.587Z,29.30
2019-06-26T07:45:08.112Z,29.30
2019-06-26T07:46:10.144Z,29.40
2019-06-26T07:47:22.450Z,29.40
2019-06-26T07:48:16.697Z,29.50
2019-06-26T07:49:18.393Z,29.50
2019-06-26T07:50:20.119Z,29.50
2019-06-26T07:51:21.924Z,29.50
2019-06-26T07:52:23.597Z,29.50
2019-06-26T07:53:25.232Z,29.60
2019-06-26T07:54:26.898Z,29.60
2019-06-26T07:55:28.597Z,29.70
2019-06-26T07:56:30.181Z,29.70
2019-06-26T07:57:32.164Z,29.80
2019-06-26T07:58:33.849Z,29.80
2019-06-26T07:59:35.498Z,29.80
2019-06-26T08:00:37.127Z,29.90
2019-06-26T08:01:38.822Z,29.90
2019-06-26T08:02:40.544Z,30.00
2019-06-26T08:03:42.106Z,30.00
2019-06-26T08:04:43.977Z,29.90
2019-06-26T08:05:45.727Z,29.90
2019-06-26T08:06:47.271Z,29.90
2019-06-26T08:07:48.871Z,29.90
2019-06-26T08:08:51.428Z,29.90
2019-06-26T08:09:53.335Z,29.90
2019-06-26T08:10:55.023Z,29.90
2019-06-26T08:11:56.615Z,29.90
2019-06-26T08:12:58.228Z,29.90
2019-06-26T08:14:00.029Z,30.00
2019-06-26T08:15:02.765Z,30.00
2019-06-26T08:16:04.883Z,30.00
2019-06-26T08:17:06.572Z,30.10
2019-06-26T08:18:08.251Z,30.10
2019-06-26T08:19:09.938Z,30.10
2019-06-26T08:20:11.791Z,30.10
2019-06-26T08:21:13.471Z,30.10
2019-06-26T08:22:15.197Z,30.20
2019-06-26T08:23:17.887Z,30.20
2019-06-26T08:24:19.497Z,30.20
2019-06-26T08:25:21.144Z,30.20
2019-06-26T08:26:22.731Z,30.20
2019-06-26T08:27:24.457Z,30.30
2019-06-26T08:28:26.057Z,30.30
2019-06-26T08:29:28.067Z,30.30
2019-06-26T08:30:30.014Z,30.30
2019-06-26T08:31:31.729Z,30.30
2019-06-26T08:32:33.411Z,30.30
2019-06-26T08:33:35.102Z,30.40
2019-06-26T08:34:36.814Z,30.30
2019-06-26T08:35:38.528Z,30.40
2019-06-26T08:36:40.211Z,30.30
2019-06-26T08:37:41.785Z,30.40
2019-06-26T08:38:43.479Z,30.30
2019-06-26T08:39:45.100Z,30.30
2019-06-26T08:40:46.715Z,30.40
2019-06-26T08:41:48.425Z,30.40
2019-06-26T08:42:49.985Z,30.50
2019-06-26T08:43:51.773Z,30.50
2019-06-26T08:44:53.360Z,30.50
2019-06-26T08:45:55.414Z,30.50
2019-06-26T08:46:57.123Z,30.50
2019-06-26T08:47:58.708Z,30.50
2019-06-26T08:49:00.431Z,30.50
2019-06-26T08:50:04.610Z,30.50
2019-06-26T08:51:06.374Z,30.50
2019-06-26T08:52:08.048Z,30.60
2019-06-26T08:53:09.806Z,30.60
2019-06-26T08:54:11.565Z,30.60
2019-06-26T08:55:13.910Z,30.70
2019-06-26T08:56:16.029Z,30.60
2019-06-26T08:57:17.609Z,30.60
2019-06-26T08:58:19.205Z,30.50
2019-06-26T08:59:20.906Z,30.50
2019-06-26T09:00:22.699Z,30.30
2019-06-26T09:01:24.418Z,30.30
2019-06-26T09:02:26.118Z,30.30
2019-06-26T09:03:27.803Z,30.20
2019-06-26T09:04:29.489Z,30.30
2019-06-26T09:05:46.942Z,30.30
2019-06-26T09:06:34.527Z,30.40
2019-06-26T09:07:36.320Z,30.50
2019-06-26T09:08:38.126Z,30.50
2019-06-26T09:09:39.843Z,30.60
2019-06-26T09:10:44.735Z,30.70
2019-06-26T09:11:44.902Z,30.70
2019-06-26T09:12:46.636Z,30.80
2019-06-26T09:13:48.317Z,30.90
2019-06-26T09:14:49.932Z,31.00
2019-06-26T09:15:51.615Z,31.10
2019-06-26T09:16:53.462Z,31.10
2019-06-26T09:17:55.063Z,31.20
2019-06-26T09:18:56.729Z,31.30
2019-06-26T09:19:58.421Z,31.30
2019-06-26T09:21:00.023Z,31.40
2019-06-26T09:22:01.761Z,31.50
2019-06-26T09:23:03.993Z,31.50
2019-06-26T09:24:05.602Z,31.40
2019-06-26T09:25:20.992Z,31.50
2019-06-26T09:26:10.930Z,31.50
2019-06-26T09:27:15.066Z,31.50
2019-06-26T09:28:16.204Z,31.50
2019-06-26T09:29:17.896Z,31.50
2019-06-26T09:30:19.704Z,31.50
2019-06-26T09:31:21.445Z,31.40
2019-06-26T09:32:23.088Z,31.50
2019-06-26T09:33:24.674Z,31.50
2019-06-26T09:34:26.267Z,31.50
2019-06-26T09:35:27.954Z,31.60
2019-06-26T09:36:29.568Z,31.60
2019-06-26T09:37:31.207Z,31.60
2019-06-26T09:38:32.894Z,31.70
2019-06-26T09:39:34.578Z,31.70
2019-06-26T09:40:36.267Z,31.70
2019-06-26T09:41:37.970Z,31.80
2019-06-26T09:42:39.946Z,31.80
2019-06-26T09:43:41.645Z,31.80
2019-06-26T09:44:43.326Z,31.80
2019-06-26T09:45:45.026Z,31.80
2019-06-26T09:46:47.150Z,31.80
2019-06-26T09:47:48.784Z,31.80
2019-06-26T09:48:53.111Z,31.70
2019-06-26T09:49:53.899Z,31.60
2019-06-26T09:50:55.881Z,31.60
2019-06-26T09:51:57.576Z,31.60
2019-06-26T09:52:59.514Z,31.70
2019-06-26T09:54:01.555Z,31.70
2019-06-26T09:55:04.564Z,31.70
2019-06-26T09:56:06.170Z,31.80
2019-06-26T09:57:07.769Z,31.80
2019-06-26T09:58:12.977Z,31.80
2019-06-26T09:59:12.883Z,31.80
2019-06-26T10:00:18.190Z,31.90
2019-06-26T10:01:19.946Z,31.80
2019-06-26T10:02:21.611Z,31.80
2019-06-26T10:03:23.631Z,31.80
2019-06-26T10:04:25.375Z,31.80
2019-06-26T10:05:26.947Z,31.80
2019-06-26T10:06:28.640Z,31.80
2019-06-26T10:07:30.336Z,31.90
2019-06-26T10:08:32.058Z,32.00
2019-06-26T10:09:33.755Z,32.00
2019-06-26T10:10:35.458Z,31.90
2019-06-26T10:11:37.137Z,31.80
2019-06-26T10:12:39.131Z,31.80
2019-06-26T10:13:40.867Z,31.80
2019-06-26T10:14:47.650Z,31.80
2019-06-26T10:15:46.042Z,31.80
2019-06-26T10:16:47.759Z,31.90
2019-06-26T10:17:49.450Z,32.00
2019-06-26T10:18:51.129Z,32.00
2019-06-26T10:19:54.157Z,32.00
2019-06-26T10:20:55.997Z,32.10
2019-06-26T10:21:57.582Z,32.20
2019-06-26T10:22:59.267Z,32.20
2019-06-26T10:24:06.960Z,32.30
2019-06-26T10:25:11.267Z,32.30
2019-06-26T10:26:12.280Z,32.30
2019-06-26T10:27:13.861Z,32.40
2019-06-26T10:28:15.561Z,32.40
2019-06-26T10:29:17.231Z,32.50
2019-06-26T10:30:19.300Z,32.50
2019-06-26T10:31:21.036Z,32.50
2019-06-26T10:32:22.708Z,32.60
2019-06-26T10:33:24.647Z,32.60
2019-06-26T10:34:26.380Z,32.60
2019-06-26T10:35:28.074Z,32.60
2019-06-26T10:36:29.759Z,32.60
2019-06-26T10:37:31.342Z,32.60
2019-06-26T10:38:33.389Z,32.60
2019-06-26T10:39:35.134Z,32.60
2019-06-26T10:40:36.866Z,32.60
2019-06-26T10:41:38.437Z,32.60
2019-06-26T10:42:40.125Z,32.60
2019-06-26T10:43:41.723Z,32.60
2019-06-26T10:44:43.477Z,32.70
2019-06-26T10:45:45.157Z,32.70
2019-06-26T10:46:46.856Z,32.80
2019-06-26T10:47:48.553Z,32.80
2019-06-26T10:48:50.236Z,32.80
2019-06-26T10:49:51.845Z,32.70
2019-06-26T10:50:58.402Z,32.60
2019-06-26T10:51:56.863Z,32.60
2019-06-26T10:52:58.563Z,32.40
2019-06-26T10:54:00.324Z,32.20
2019-06-26T10:55:04.220Z,32.10
2019-06-26T10:56:05.934Z,32.10
2019-06-26T10:57:10.413Z,32.10
2019-06-26T10:58:11.987Z,32.10
2019-06-26T10:59:13.671Z,32.20
2019-06-26T11:00:15.940Z,32.30
2019-06-26T11:01:17.603Z,32.40
2019-06-26T11:02:19.245Z,32.40
2019-06-26T11:03:21.291Z,32.50
2019-06-26T11:04:23.049Z,32.60
2019-06-26T11:05:24.760Z,32.70
2019-06-26T11:06:26.830Z,32.60
2019-06-26T11:07:29.870Z,32.70
2019-06-26T11:08:31.461Z,32.70
2019-06-26T11:09:33.148Z,32.80
2019-06-26T11:10:35.259Z,32.90
2019-06-26T11:11:37.833Z,32.90
2019-06-26T11:12:39.457Z,32.80
2019-06-26T11:13:41.161Z,32.90
2019-06-26T11:14:44.463Z,32.90
2019-06-26T11:15:46.158Z,32.90
2019-06-26T11:16:47.879Z,32.90
2019-06-26T11:17:49.614Z,33.00
2019-06-26T11:18:51.306Z,33.00
2019-06-26T11:19:55.432Z,33.10
2019-06-26T11:20:56.503Z,33.10
2019-06-26T11:21:58.110Z,33.20
2019-06-26T11:22:59.844Z,33.20
2019-06-26T11:24:01.875Z,33.20
2019-06-26T11:25:05.570Z,33.00
2019-06-26T11:26:07.254Z,33.10
2019-06-26T11:27:08.941Z,33.20
2019-06-26T11:28:10.561Z,33.20
2019-06-26T11:29:12.236Z,33.20
2019-06-26T11:30:14.334Z,33.20
2019-06-26T11:31:16.064Z,33.20
2019-06-26T11:32:17.755Z,33.20
2019-06-26T11:33:19.550Z,33.20
2019-06-26T11:34:21.108Z,33.30
2019-06-26T11:35:22.816Z,33.20
2019-06-26T11:36:24.383Z,33.30
2019-06-26T11:37:26.099Z,33.40
2019-06-26T11:38:28.174Z,33.40
2019-06-26T11:39:30.250Z,33.50
2019-06-26T11:40:31.843Z,33.60
2019-06-26T11:41:33.442Z,33.70
2019-06-26T11:42:35.051Z,33.70
2019-06-26T11:43:36.833Z,33.60
2019-06-26T11:44:38.488Z,33.30
2019-06-26T11:45:40.275Z,33.30
2019-06-26T11:46:42.273Z,33.20
2019-06-26T11:47:45.881Z,33.20
2019-06-26T11:48:47.314Z,33.20
2019-06-26T11:49:59.451Z,33.10
2019-06-26T11:50:52.428Z,33.20
2019-06-26T11:51:54.146Z,33.20
2019-06-26T11:52:55.855Z,33.20
2019-06-26T11:53:59.094Z,33.20
2019-06-26T11:55:02.979Z,33.30
2019-06-26T11:56:04.580Z,33.40
2019-06-26T11:57:06.164Z,33.40
2019-06-26T11:58:07.766Z,33.40
2019-06-26T11:59:09.555Z,33.40
2019-06-26T12:00:14.763Z,33.40
2019-06-26T12:01:16.462Z,33.40
2019-06-26T12:02:21.724Z,33.50
2019-06-26T12:03:23.531Z,33.50
2019-06-26T12:04:25.231Z,33.60
2019-06-26T12:05:26.878Z,33.60
2019-06-26T12:06:28.555Z,33.60
2019-06-26T12:07:30.253Z,33.60
2019-06-26T12:08:31.855Z,33.70
2019-06-26T12:09:33.946Z,33.80
2019-06-26T12:10:35.646Z,33.80
2019-06-26T12:11:37.346Z,33.80
2019-06-26T12:12:39.111Z,33.70
2019-06-26T12:13:40.844Z,33.70
2019-06-26T12:14:42.462Z,33.70
2019-06-26T12:15:44.055Z,33.60
2019-06-26T12:16:45.743Z,33.50
2019-06-26T12:17:47.441Z,33.60
2019-06-26T12:18:49.910Z,33.60
2019-06-26T12:19:52.183Z,33.70
2019-06-26T12:20:53.873Z,33.70
2019-06-26T12:21:55.570Z,33.70
2019-06-26T12:22:57.289Z,33.80
2019-06-26T12:23:58.874Z,33.80
2019-06-26T12:25:00.928Z,33.80
2019-06-26T12:26:02.762Z,33.80
2019-06-26T12:27:04.464Z,33.90
2019-06-26T12:28:06.175Z,34.10
2019-06-26T12:29:07.801Z,34.30
2019-06-26T12:30:10.417Z,34.50
2019-06-26T12:31:12.140Z,34.70
2019-06-26T12:32:13.888Z,34.90
2019-06-26T12:33:15.436Z,35.40
2019-06-26T12:34:17.236Z,35.60
2019-06-26T12:35:19.088Z,35.90
2019-06-26T12:36:20.682Z,36.00
2019-06-26T12:37:36.572Z,36.20
2019-06-26T12:38:26.180Z,36.30
2019-06-26T12:39:27.774Z,36.50
2019-06-26T12:40:31.239Z,36.60
2019-06-26T12:41:33.023Z,36.80
2019-06-26T12:42:34.720Z,37.00
2019-06-26T12:43:37.481Z,37.40
2019-06-26T12:44:39.147Z,37.60
2019-06-26T12:45:40.801Z,37.70
2019-06-26T12:46:42.479Z,37.70
2019-06-26T12:47:44.189Z,37.20
2019-06-26T12:48:45.867Z,36.90
2019-06-26T12:49:47.579Z,36.80
2019-06-26T12:50:49.214Z,36.70
2019-06-26T12:51:50.915Z,36.80
2019-06-26T12:52:52.609Z,36.80
2019-06-26T12:53:57.534Z,36.80
2019-06-26T12:54:57.967Z,37.10
2019-06-26T12:55:59.599Z,37.10
2019-06-26T12:57:01.291Z,36.80
2019-06-26T12:58:13.670Z,36.50
2019-06-26T12:59:07.090Z,36.70
2019-06-26T13:00:09.888Z,36.90
2019-06-26T13:01:11.507Z,37.00
2019-06-26T13:02:13.213Z,37.30
2019-06-26T13:03:14.832Z,37.60
2019-06-26T13:04:18.546Z,37.70
2019-06-26T13:05:20.134Z,37.60
2019-06-26T13:06:21.872Z,37.80
2019-06-26T13:07:23.482Z,37.80
2019-06-26T13:08:25.538Z,37.80
2019-06-26T13:09:27.137Z,37.90
2019-06-26T13:10:28.917Z,38.00
2019-06-26T13:11:30.569Z,37.60
2019-06-26T13:12:32.289Z,37.50
2019-06-26T13:13:34.039Z,37.20
2019-06-26T13:14:35.749Z,37.00
2019-06-26T13:15:37.371Z,37.20
2019-06-26T13:16:38.941Z,37.20
2019-06-26T13:17:40.836Z,36.90
2019-06-26T13:18:42.495Z,36.80